createdAt,value
2018-06-30T00:00:46.975Z,75.60
2018-06-30T00:03:20.512Z,75.70
2018-06-30T00:05:54.107Z,75.70
2018-06-30T00:08:27.792Z,75.70
2018-06-30T00:11:01.909Z,75.70
2018-06-30T00:13:35.560Z,75.70
2018-06-30T00:18:42.246Z,75.70
2018-06-30T00:21:16.712Z,75.70
2018-06-30T00:23:50.234Z,75.70
2018-06-30T00:26:23.849Z,75.70
2018-06-30T00:31:29.955Z,75.80
2018-06-30T00:34:04.796Z,75.70
2018-06-30T00:36:38.434Z,75.80
2018-06-30T00:39:13.590Z,75.90
2018-06-30T00:41:47.765Z,75.90
2018-06-30T01:10:11.540Z,76.00
2018-06-30T01:12:45.408Z,76.00
2018-06-30T01:15:19.059Z,77.80
2018-06-30T01:17:52.507Z,77.90
2018-06-30T01:20:26.287Z,77.90
2018-06-30T01:22:59.550Z,77.80
2018-06-30T01:25:33.751Z,77.80
2018-06-30T01:28:07.106Z,77.90
2018-06-30T01:30:40.384Z,77.90
2018-06-30T01:33:13.401Z,78.00
2018-06-30T01:35:46.595Z,78.00
2018-06-30T01:38:20.949Z,77.90
2018-06-30T01:40:54.031Z,77.90
2018-06-30T01:43:27.151Z,77.80
2018-06-30T01:46:00.121Z,77.80
2018-06-30T01:48:33.687Z,77.80
2018-06-30T01:51:07.274Z,77.80
2018-06-30T01:53:40.894Z,77.80
2018-06-30T01:56:14.425Z,77.80
2018-06-30T01:58:47.419Z,77.70
2018-06-30T02:01:20.416Z,77.60
2018-06-30T02:03:54.501Z,77.50
2018-06-30T02:06:27.514Z,77.30
2018-06-30T02:09:01.078Z,77.40
2018-06-30T02:11:34.035Z,77.20
2018-06-30T02:14:06.988Z,77.10
2018-06-30T02:16:40.012Z,77.00
2018-06-30T02:19:12.998Z,76.90
2018-06-30T02:21:47.958Z,76.70
2018-06-30T02:24:20.961Z,76.70
2018-06-30T02:26:54.176Z,76.60
2018-06-30T02:29:27.198Z,76.40
2018-06-30T02:32:00.383Z,76.30
2018-06-30T02:34:33.905Z,76.10
2018-06-30T02:37:06.926Z,76.00
2018-06-30T02:39:39.980Z,75.80
2018-06-30T02:42:13.921Z,75.70
2018-06-30T02:44:46.914Z,75.70
2018-06-30T02:47:20.622Z,75.90
2018-06-30T02:49:53.695Z,76.00
2018-06-30T02:55:00.817Z,76.10
2018-06-30T02:57:33.730Z,76.00
2018-06-30T03:00:06.700Z,76.00
2018-06-30T03:02:39.735Z,76.00
2018-06-30T03:05:13.949Z,75.90
2018-06-30T03:07:47.062Z,75.60
2018-06-30T03:10:19.959Z,75.50
2018-06-30T03:12:52.922Z,75.50
2018-06-30T03:15:26.023Z,75.50
2018-06-30T03:20:30.764Z,75.40
2018-06-30T03:23:03.867Z,75.30
2018-06-30T03:25:36.940Z,75.20
2018-06-30T03:28:09.962Z,75.10
2018-06-30T03:30:47.682Z,75.00
2018-06-30T03:33:20.774Z,74.80
2018-06-30T03:35:53.882Z,74.70
2018-06-30T03:38:26.929Z,74.60
2018-06-30T03:41:00.038Z,74.80
2018-06-30T03:43:33.482Z,74.70
2018-06-30T03:46:06.504Z,74.60
2018-06-30T03:48:39.781Z,74.40
2018-06-30T03:51:12.785Z,74.10
2018-06-30T03:53:45.855Z,74.20
2018-06-30T03:56:19.194Z,74.10
2018-06-30T03:58:52.151Z,73.80
2018-06-30T04:01:26.456Z,73.80
2018-06-30T04:03:59.573Z,73.60
2018-06-30T04:06:33.938Z,73.50
2018-06-30T04:09:08.655Z,73.30
2018-06-30T04:11:41.750Z,73.50
2018-06-30T04:16:46.726Z,73.00
2018-06-30T04:19:19.793Z,73.00
2018-06-30T04:21:52.818Z,72.70
2018-06-30T04:24:25.854Z,72.70
2018-06-30T04:26:59.170Z,72.70
2018-06-30T04:29:32.196Z,72.50
2018-06-30T04:32:05.274Z,72.50
2018-06-30T04:34:38.310Z,72.60
2018-06-30T04:37:11.367Z,72.10
2018-06-30T04:39:44.754Z,72.20
2018-06-30T04:42:17.758Z,72.20
2018-06-30T04:44:51.145Z,71.80
2018-06-30T04:47:24.860Z,72.00
2018-06-30T04:49:57.825Z,71.80
2018-06-30T04:52:30.882Z,71.70
2018-06-30T04:55:04.664Z,71.70
2018-06-30T05:00:10.438Z,71.70
2018-06-30T05:02:43.431Z,71.50
2018-06-30T05:05:17.270Z,71.30
2018-06-30T05:07:50.285Z,71.20
2018-06-30T05:10:23.502Z,71.30
2018-06-30T05:12:56.430Z,71.10
2018-06-30T05:15:29.574Z,70.90
2018-06-30T05:18:02.554Z,71.20
2018-06-30T05:20:36.551Z,71.20
2018-06-30T05:23:09.857Z,71.80
2018-06-30T05:25:43.519Z,71.00
2018-06-30T05:28:16.501Z,71.00
2018-06-30T05:30:49.587Z,70.80
2018-06-30T05:33:23.144Z,70.80
2018-06-30T05:38:30.214Z,70.70
2018-06-30T05:41:05.692Z,70.80
2018-06-30T05:43:38.707Z,70.50
2018-06-30T05:46:12.019Z,70.70
2018-06-30T05:48:44.971Z,70.40
2018-06-30T05:51:17.838Z,70.40
2018-06-30T05:56:23.823Z,70.40
2018-06-30T05:58:56.848Z,70.40
2018-06-30T06:01:29.708Z,70.50
2018-06-30T06:04:02.715Z,70.40
2018-06-30T06:06:36.000Z,70.40
2018-06-30T06:09:12.793Z,70.40
2018-06-30T06:11:45.772Z,70.40
2018-06-30T06:14:19.594Z,70.30
2018-06-30T06:16:52.602Z,70.30
2018-06-30T06:19:27.395Z,70.20
2018-06-30T06:22:00.356Z,70.20
2018-06-30T06:24:34.110Z,70.10
2018-06-30T06:27:07.186Z,70.00
2018-06-30T06:29:40.163Z,70.20
2018-06-30T06:32:14.709Z,70.00
2018-06-30T06:34:47.649Z,70.00
2018-06-30T06:37:20.911Z,69.20
2018-06-30T06:39:53.957Z,68.60
2018-06-30T06:42:26.977Z,68.50
2018-06-30T06:45:00.109Z,68.90
2018-06-30T06:47:33.085Z,68.90
2018-06-30T06:50:06.574Z,68.90
2018-06-30T06:52:39.497Z,69.20
2018-06-30T06:55:12.456Z,69.90
2018-06-30T06:57:46.178Z,70.30
2018-06-30T07:00:19.271Z,70.50
2018-06-30T07:02:53.710Z,70.60
2018-06-30T07:05:26.754Z,70.80
2018-06-30T07:07:59.748Z,70.80
2018-06-30T07:10:32.804Z,70.80
2018-06-30T07:13:05.918Z,70.90
2018-06-30T07:15:38.877Z,70.80
2018-06-30T07:18:12.735Z,70.80
2018-06-30T07:20:45.701Z,70.80
2018-06-30T07:23:18.701Z,70.80
2018-06-30T07:25:51.866Z,70.70
2018-06-30T07:30:58.397Z,70.60
2018-06-30T07:33:32.142Z,70.60
2018-06-30T07:36:05.287Z,70.20
2018-06-30T07:38:38.392Z,69.90
2018-06-30T07:41:11.528Z,69.90
2018-06-30T07:43:44.569Z,69.80
2018-06-30T07:46:18.199Z,69.90
2018-06-30T07:48:51.825Z,69.90
2018-06-30T07:51:25.669Z,70.00
2018-06-30T07:53:58.687Z,70.00
2018-06-30T07:56:31.716Z,70.00
2018-06-30T07:59:05.510Z,70.10
2018-06-30T08:01:39.707Z,70.80
2018-06-30T08:04:12.689Z,70.00
2018-06-30T08:06:45.734Z,69.90
2018-06-30T08:09:18.709Z,70.00
2018-06-30T08:11:52.073Z,70.10
2018-06-30T08:14:25.151Z,70.00
2018-06-30T08:19:30.459Z,69.90
2018-06-30T08:22:03.645Z,70.00
2018-06-30T08:24:37.014Z,69.70
2018-06-30T08:27:10.357Z,69.70
2018-06-30T08:29:43.868Z,69.70
2018-06-30T08:32:17.087Z,69.70
2018-06-30T08:34:50.594Z,69.60
2018-06-30T08:37:23.749Z,69.80
2018-06-30T08:39:57.001Z,69.80
2018-06-30T08:42:31.622Z,69.60
2018-06-30T08:45:04.711Z,69.60
2018-06-30T08:47:38.758Z,69.60
2018-06-30T08:50:11.778Z,69.50
2018-06-30T08:52:45.386Z,69.50
2018-06-30T08:57:50.946Z,69.60
2018-06-30T09:00:23.984Z,69.50
2018-06-30T09:02:57.043Z,69.40
2018-06-30T09:05:29.965Z,69.30
2018-06-30T09:08:03.174Z,69.30
2018-06-30T09:10:36.184Z,69.30
2018-06-30T09:13:10.177Z,69.40
2018-06-30T09:15:43.302Z,69.00
2018-06-30T09:18:16.344Z,68.90
2018-06-30T09:20:49.334Z,69.00
2018-06-30T09:23:22.351Z,69.00
2018-06-30T09:28:26.985Z,69.20
2018-06-30T09:31:00.947Z,69.30
2018-06-30T09:33:34.033Z,69.30
2018-06-30T09:36:07.110Z,69.20
2018-06-30T09:38:40.101Z,69.20
2018-06-30T09:41:13.113Z,69.20
2018-06-30T09:43:46.118Z,69.20
2018-06-30T09:46:19.191Z,69.10
2018-06-30T09:48:52.526Z,69.00
2018-06-30T09:53:57.056Z,69.00
2018-06-30T09:56:30.294Z,69.00
2018-06-30T09:59:03.333Z,69.00
2018-06-30T10:01:36.481Z,69.10
2018-06-30T10:04:09.920Z,69.00
2018-06-30T10:06:42.941Z,69.20
2018-06-30T10:09:16.245Z,69.10
2018-06-30T10:11:49.177Z,69.10
2018-06-30T10:14:22.207Z,69.20
2018-06-30T10:16:55.245Z,69.20
2018-06-30T10:19:28.276Z,69.20
2018-06-30T10:22:02.894Z,69.20
2018-06-30T10:24:35.909Z,69.30
2018-06-30T10:27:08.837Z,69.30
2018-06-30T10:29:41.824Z,69.30
2018-06-30T10:32:14.842Z,69.40
2018-06-30T10:34:48.521Z,69.30
2018-06-30T10:39:53.067Z,69.50
2018-06-30T10:42:26.044Z,69.50
2018-06-30T10:44:58.961Z,69.50
2018-06-30T10:47:32.297Z,69.50
2018-06-30T10:50:05.658Z,69.50
2018-06-30T10:52:39.154Z,69.60
2018-06-30T10:55:12.273Z,69.60
2018-06-30T10:57:45.565Z,69.60
2018-06-30T11:00:18.675Z,69.70
2018-06-30T11:02:52.152Z,69.70
2018-06-30T11:05:26.720Z,69.70
2018-06-30T11:08:04.079Z,69.70
2018-06-30T11:10:38.328Z,69.60
2018-06-30T11:13:12.007Z,69.70
2018-06-30T11:15:45.344Z,69.70
2018-06-30T11:18:18.862Z,69.70
2018-06-30T11:20:51.850Z,69.70
2018-06-30T11:23:24.813Z,69.70
2018-06-30T11:25:57.814Z,69.80
2018-06-30T11:28:30.890Z,69.50
2018-06-30T11:31:04.235Z,69.90
2018-06-30T11:33:37.177Z,69.90
2018-06-30T11:36:10.189Z,69.90
2018-06-30T11:38:43.198Z,69.90
2018-06-30T11:41:16.285Z,70.00
2018-06-30T11:43:49.758Z,70.00
2018-06-30T11:46:23.373Z,70.00
2018-06-30T11:48:56.647Z,70.00
2018-06-30T11:51:29.685Z,70.00
2018-06-30T11:54:02.990Z,70.00
2018-06-30T11:56:37.594Z,70.20
2018-06-30T11:59:10.497Z,70.80
2018-06-30T12:04:15.688Z,70.20
2018-06-30T12:06:48.646Z,70.20
2018-06-30T12:09:21.655Z,70.20
2018-06-30T12:11:54.668Z,70.30
2018-06-30T12:14:28.480Z,70.30
2018-06-30T12:17:01.381Z,70.30
2018-06-30T12:19:34.346Z,70.30
2018-06-30T12:22:07.562Z,70.30
2018-06-30T12:24:41.502Z,70.40
2018-06-30T12:29:46.316Z,70.40
2018-06-30T12:32:19.432Z,70.40
2018-06-30T12:34:53.217Z,70.50
2018-06-30T12:37:26.193Z,70.50
2018-06-30T12:39:59.446Z,70.50
2018-06-30T12:42:32.727Z,70.50
2018-06-30T12:45:06.313Z,70.50
2018-06-30T12:47:39.438Z,70.50
2018-06-30T12:50:12.367Z,70.60
2018-06-30T12:52:45.345Z,70.60
2018-06-30T12:55:18.298Z,70.70
2018-06-30T12:57:51.832Z,70.70
2018-06-30T13:26:11.237Z,70.70
2018-06-30T13:28:45.486Z,70.70
2018-06-30T13:31:18.589Z,70.90
2018-06-30T13:33:51.686Z,71.00
2018-06-30T13:38:57.321Z,71.00
2018-06-30T13:41:31.297Z,70.90
2018-06-30T13:44:04.341Z,71.10
2018-06-30T13:46:37.289Z,71.10
2018-06-30T13:49:11.133Z,71.10
2018-06-30T13:51:44.053Z,71.10
2018-06-30T13:54:17.546Z,71.10
2018-06-30T13:56:50.485Z,71.20
2018-06-30T13:59:23.363Z,71.30
2018-06-30T14:01:59.041Z,71.40
2018-06-30T14:04:31.949Z,71.30
2018-06-30T14:07:05.762Z,71.30
2018-06-30T14:09:39.251Z,71.30
2018-06-30T14:12:12.864Z,71.40
2018-06-30T14:14:46.265Z,71.40
2018-06-30T14:17:20.516Z,71.40
2018-06-30T14:22:26.634Z,71.60
2018-06-30T14:25:00.081Z,71.50
2018-06-30T14:27:33.460Z,71.60
2018-06-30T14:30:07.541Z,71.70
2018-06-30T14:32:40.785Z,71.60
2018-06-30T14:35:13.886Z,71.70
2018-06-30T14:37:47.027Z,71.80
2018-06-30T14:40:20.150Z,71.80
2018-06-30T14:42:53.166Z,71.80
2018-06-30T14:45:26.844Z,71.80
2018-06-30T14:47:59.917Z,71.90
2018-06-30T14:50:33.913Z,72.80
2018-06-30T14:53:06.929Z,72.40
2018-06-30T14:55:39.966Z,72.30
2018-06-30T14:58:13.295Z,72.30
2018-06-30T15:00:46.381Z,72.20
2018-06-30T15:03:19.784Z,72.30
2018-06-30T15:05:52.782Z,73.30
2018-06-30T15:08:25.817Z,72.70
2018-06-30T15:10:58.846Z,72.70
2018-06-30T15:13:31.886Z,72.50
2018-06-30T15:16:08.718Z,72.50
2018-06-30T15:18:41.693Z,72.40
2018-06-30T15:21:14.763Z,72.40
2018-06-30T15:23:47.855Z,72.40
2018-06-30T15:26:21.917Z,72.50
2018-06-30T15:28:56.081Z,72.40
2018-06-30T15:31:29.277Z,72.70
2018-06-30T15:34:02.430Z,69.30
2018-06-30T15:36:36.296Z,67.10
2018-06-30T15:39:12.327Z,64.70
2018-06-30T15:41:45.877Z,63.10
2018-06-30T15:44:18.929Z,61.70
2018-06-30T15:46:52.403Z,60.00
2018-06-30T15:49:26.693Z,59.00
2018-06-30T15:52:00.715Z,57.60
2018-06-30T15:54:34.054Z,56.70
2018-06-30T15:57:07.067Z,56.10
2018-06-30T15:59:40.362Z,55.20
2018-06-30T16:02:13.862Z,54.60
2018-06-30T16:04:46.829Z,53.90
2018-06-30T16:07:19.937Z,53.50
2018-06-30T16:12:25.354Z,52.90
2018-06-30T16:14:58.384Z,52.40
2018-06-30T16:17:32.059Z,52.20
2018-06-30T16:20:05.735Z,51.90
2018-06-30T16:22:38.709Z,51.90
2018-06-30T16:25:11.782Z,51.80
2018-06-30T16:27:44.747Z,51.60
2018-06-30T16:30:17.831Z,51.50
2018-06-30T16:32:51.154Z,51.40
2018-06-30T16:37:57.826Z,56.70
2018-06-30T16:40:30.834Z,57.60
2018-06-30T16:43:03.925Z,56.00
2018-06-30T16:45:37.059Z,54.90
2018-06-30T16:48:10.229Z,54.00
2018-06-30T16:50:44.369Z,53.30
2018-06-30T16:53:17.376Z,55.70
2018-06-30T16:55:50.958Z,58.00
2018-06-30T16:58:24.145Z,59.90
2018-06-30T17:00:57.302Z,58.50
2018-06-30T17:03:30.449Z,56.90
2018-06-30T17:06:03.449Z,58.60
2018-06-30T17:13:41.386Z,60.30
2018-06-30T17:16:15.561Z,58.40
2018-06-30T17:18:48.682Z,57.00
2018-06-30T17:23:54.619Z,61.20
2018-06-30T17:26:27.740Z,63.40
2018-06-30T17:29:01.274Z,60.20
2018-06-30T17:31:34.321Z,58.70
2018-06-30T17:34:07.882Z,58.40
2018-06-30T17:36:40.826Z,61.60
2018-06-30T17:41:47.068Z,62.80
2018-06-30T17:44:20.379Z,59.90
2018-06-30T17:46:55.072Z,58.30
2018-06-30T17:49:28.128Z,58.70
2018-06-30T17:52:02.020Z,62.10
2018-06-30T17:54:35.156Z,64.30
2018-06-30T17:57:08.350Z,62.20
2018-06-30T17:59:41.303Z,59.70
2018-06-30T18:02:14.580Z,63.10
2018-06-30T18:07:19.504Z,66.60
2018-06-30T18:09:54.017Z,62.80
2018-06-30T18:12:27.166Z,61.70
2018-06-30T18:15:00.596Z,64.60
2018-06-30T18:17:34.465Z,66.70
2018-06-30T18:20:07.636Z,65.20
2018-06-30T18:22:41.256Z,61.60
2018-06-30T18:25:14.721Z,64.10
2018-06-30T18:27:48.233Z,66.30
2018-06-30T18:30:21.920Z,67.50
2018-06-30T18:32:55.427Z,63.90
2018-06-30T18:35:29.054Z,62.10
2018-06-30T18:38:02.713Z,65.40
2018-06-30T18:40:36.199Z,67.50
2018-06-30T18:43:10.344Z,66.30
2018-06-30T18:45:43.834Z,62.70
2018-06-30T18:48:19.042Z,63.90
2018-06-30T18:50:52.215Z,67.30
2018-06-30T18:53:25.271Z,68.20
2018-06-30T18:55:58.281Z,64.70
2018-06-30T19:01:03.964Z,64.90
2018-06-30T19:03:36.989Z,66.90
2018-06-30T19:06:10.359Z,67.20
2018-06-30T19:08:43.591Z,64.40
2018-06-30T19:11:17.052Z,67.80
2018-06-30T19:13:51.283Z,69.30
2018-06-30T19:16:24.209Z,67.70
2018-06-30T19:18:57.203Z,64.70
2018-06-30T19:21:30.283Z,67.30
2018-06-30T19:24:03.769Z,69.50
2018-06-30T19:26:36.783Z,68.40
2018-06-30T19:29:09.855Z,64.70
2018-06-30T19:31:43.648Z,67.70
2018-06-30T19:34:16.601Z,69.70
2018-06-30T19:36:49.782Z,69.60
2018-06-30T19:39:22.766Z,65.30
2018-06-30T19:41:58.311Z,67.80
2018-06-30T19:44:32.274Z,70.10
2018-06-30T19:47:06.245Z,69.60
2018-06-30T19:49:39.245Z,65.90
2018-06-30T19:52:12.346Z,64.20
2018-06-30T19:54:45.453Z,67.10
2018-06-30T19:57:20.135Z,69.60
2018-06-30T19:59:53.120Z,67.80
2018-06-30T20:02:26.265Z,66.30
2018-06-30T20:04:59.357Z,68.90
2018-06-30T20:07:35.900Z,70.60
2018-06-30T20:12:42.130Z,67.30
2018-06-30T20:15:15.121Z,69.90
2018-06-30T20:17:48.049Z,71.40
2018-06-30T20:20:21.085Z,68.30
2018-06-30T20:22:54.524Z,67.50
2018-06-30T20:25:27.546Z,69.70
2018-06-30T20:28:01.775Z,71.40
2018-06-30T20:30:34.873Z,68.20
2018-06-30T20:33:07.804Z,68.30
2018-06-30T20:35:41.206Z,70.50
2018-06-30T20:38:14.259Z,71.90
2018-06-30T20:40:47.746Z,68.20
2018-06-30T20:43:20.786Z,67.80
2018-06-30T20:45:53.859Z,70.30
2018-06-30T20:48:26.806Z,72.00
2018-06-30T20:50:59.832Z,68.30
2018-06-30T20:53:33.483Z,68.30
2018-06-30T20:56:06.458Z,70.30
2018-06-30T20:58:40.401Z,72.00
2018-06-30T21:01:13.520Z,68.20
2018-06-30T21:03:46.478Z,69.20
2018-06-30T21:06:21.348Z,71.10
2018-06-30T21:08:54.318Z,72.20
2018-06-30T21:11:27.357Z,67.70
2018-06-30T21:14:00.348Z,69.40
2018-06-30T21:16:34.325Z,71.10
2018-06-30T21:21:39.481Z,67.50
2018-06-30T21:26:44.275Z,71.30
2018-06-30T21:29:17.257Z,71.90
2018-06-30T21:31:50.293Z,67.40
2018-06-30T21:34:23.347Z,69.50
2018-06-30T21:36:57.546Z,71.30
2018-06-30T21:39:31.191Z,71.70
2018-06-30T21:42:04.290Z,67.40
2018-06-30T21:44:37.401Z,69.50
2018-06-30T21:47:10.283Z,71.60
2018-06-30T21:49:43.329Z,71.00
2018-06-30T21:52:16.293Z,67.40
2018-06-30T21:54:49.350Z,69.80
2018-06-30T21:57:22.439Z,71.80
2018-06-30T21:59:55.418Z,70.10
2018-06-30T22:02:29.493Z,68.40
2018-06-30T22:07:35.818Z,72.30
2018-06-30T22:10:10.314Z,69.40
2018-06-30T22:12:43.319Z,68.90
2018-06-30T22:15:17.477Z,71.50
2018-06-30T22:17:50.538Z,72.70
2018-06-30T22:20:24.545Z,68.80
2018-06-30T22:22:57.889Z,70.20
2018-06-30T22:25:30.866Z,71.80
2018-06-30T22:28:06.022Z,73.10
2018-06-30T22:30:38.994Z,68.40
2018-06-30T22:33:13.884Z,70.70
2018-06-30T22:35:47.024Z,72.20
2018-06-30T22:38:20.009Z,71.60
2018-06-30T22:40:53.010Z,69.60
2018-06-30T22:43:25.974Z,71.80
2018-06-30T22:46:00.730Z,73.00
2018-06-30T22:48:33.733Z,70.30
2018-06-30T22:51:06.756Z,69.40
2018-06-30T22:53:39.751Z,72.10
2018-06-30T22:56:12.763Z,73.20
2018-06-30T23:01:18.005Z,71.50
2018-06-30T23:03:51.030Z,73.00
2018-06-30T23:06:24.012Z,72.20
2018-06-30T23:08:57.051Z,71.10
2018-06-30T23:11:30.631Z,72.90
2018-06-30T23:14:03.626Z,74.10
2018-06-30T23:16:37.269Z,70.60
2018-06-30T23:19:10.331Z,71.70
2018-06-30T23:24:15.994Z,74.50
2018-06-30T23:26:49.477Z,70.80
2018-06-30T23:29:23.060Z,72.80
2018-06-30T23:31:56.304Z,74.10
2018-06-30T23:34:29.638Z,71.60
2018-06-30T23:37:02.956Z,71.40
2018-06-30T23:39:36.298Z,73.70
2018-06-30T23:42:09.886Z,74.90
2018-06-30T23:44:43.195Z,71.40
2018-06-30T23:47:17.557Z,73.40
2018-06-30T23:49:50.990Z,74.60
2018-06-30T23:52:24.450Z,73.30
2018-06-30T23:55:00.843Z,71.90
2018-06-30T23:57:34.313Z,73.70
